Thunder radar more information blitzortung!


Radar de pluja more information rain snow radar


Visita la nostra xarxa de llocs de meteo:

Template documentation
and downloads

And another site



No particular awareness of the weather is required.    There are no Weather-warnings

Pagina Historial Weather Underground text

Diari Resum February 5, 2018 Unitats:  Imperial    Mètric   Tant
« Previous Dia
SegĂźent Dia »
Diari Setmana Mensual Anual Personalitzada
  Maxima: Minima: Media:
Temperatura: TemperatureC °F 3.9 °F 6 °F
Punt de rosada: DewpointC °F 1.6 °F 4.3 °F
Humitat: Humidity % 85 % 89 %
Wind Speed: WindSpeedKMH mph 0.0 mph 5.7 mph
RĂ fegues de vent: WindSpeedGustKMH mph - -
Vent:- - East
Pression baro: PressurehPa in 1007.0 in -
Precipitacions: 24.9 in    
Historical Graphs
 
 
Dades de taula per February 5, 2018
Temps Temperatura Punt de rosada Pression baro Vent Wind Speed RĂ fegues de vent Humitat Rainfall Rate (Hourly)
TemperatureC °F DewpointC °F PressurehPa in Calm     Humidity % HourlyPrecipMM in
00:00 4.7 °F 2.9 °F 1007.0 in NNE 4.8 mph 8.0 mph 88 % 0.0 in
00:01 4.5 °F 2.2 °F 1010.0 in NNE 4.7 mph 4.7 mph 85 % 0.0 in
00:06 4.5 °F 2.2 °F 1010.0 in NE 7.4 mph 7.4 mph 85 % 0.0 in
00:10 4.7 °F 2.9 °F 1007.0 in NNE 8.0 mph 9.7 mph 88 % 0.0 in
00:11 4.5 °F 2.2 °F 1010.0 in NNE 7.4 mph 7.4 mph 85 % 0.0 in
00:16 4.5 °F 2.2 °F 1010.0 in NNE 6.4 mph 6.4 mph 85 % 0.0 in
00:20 4.7 °F 2.9 °F 1007.0 in NNE 4.8 mph 6.4 mph 88 % 0.0 in
00:21 4.5 °F 2.2 °F 1010.0 in NNE 11.1 mph 11.1 mph 85 % 0.0 in
00:26 4.4 °F 2.1 °F 1010.0 in NNE 7.4 mph 7.4 mph 85 % 0.0 in
00:30 4.6 °F 2.8 °F 1007.0 in NNE 4.8 mph 8.0 mph 88 % 0.0 in
00:31 4.4 °F 2.1 °F 1010.0 in NE 3.7 mph 3.7 mph 85 % 0.0 in
00:36 4.4 °F 2.1 °F 1010.0 in NNW 3.7 mph 3.7 mph 85 % 0.0 in
00:40 4.6 °F 2.8 °F 1007.0 in NNE 3.2 mph 6.4 mph 88 % 0.0 in
00:41 4.4 °F 2.1 °F 1010.0 in NNE 7.4 mph 7.4 mph 85 % 0.0 in
00:46 4.4 °F 2.1 °F 1010.0 in NNE 7.4 mph 7.4 mph 85 % 0.0 in
00:50 4.7 °F 2.9 °F 1007.0 in NNE 8.0 mph 8.0 mph 88 % 0.0 in
00:51 4.4 °F 2.1 °F 1010.0 in NW 5.6 mph 5.6 mph 85 % 0.0 in
00:56 4.4 °F 2.1 °F 1010.0 in NNE 5.6 mph 5.6 mph 85 % 0.0 in
01:00 4.9 °F 3.2 °F 1007.0 in NE 11.3 mph 11.3 mph 89 % 0.0 in
01:01 4.3 °F 2.0 °F 1010.0 in NNE 6.4 mph 6.4 mph 85 % 0.0 in
01:06 4.3 °F 2.0 °F 1010.0 in ENE 5.6 mph 5.6 mph 85 % 0.0 in
01:11 4.2 °F 1.9 °F 1010.0 in NNW 5.6 mph 5.6 mph 85 % 0.0 in
01:16 4.2 °F 1.9 °F 1010.0 in NNE 3.9 mph 3.9 mph 85 % 0.0 in
01:20 5.2 °F 3.6 °F 1007.0 in NNE 4.8 mph 11.3 mph 89 % 0.0 in
01:21 4.1 °F 1.8 °F 1010.0 in NE 9.3 mph 9.3 mph 85 % 0.0 in
01:26 4.1 °F 1.8 °F 1010.0 in NNE 11.1 mph 11.1 mph 85 % 0.0 in
01:31 4.0 °F 1.7 °F 1009.0 in NNE 13.0 mph 13.0 mph 85 % 0.0 in
01:36 4.0 °F 1.7 °F 1009.0 in NNE 9.3 mph 9.3 mph 85 % 0.0 in
01:40 5.3 °F 3.6 °F 1007.0 in NNE 4.8 mph 6.4 mph 89 % 0.0 in
01:41 3.9 °F 1.6 °F 1009.0 in NNE 9.3 mph 9.3 mph 85 % 0.0 in
01:46 3.9 °F 1.6 °F 1010.0 in NE 5.6 mph 5.6 mph 85 % 0.0 in
01:50 5.4 °F 3.9 °F 1007.0 in NNE 3.2 mph 8.0 mph 90 % 0.0 in
01:51 3.9 °F 1.6 °F 1010.0 in ENE 5.6 mph 5.6 mph 85 % 0.0 in
01:56 3.9 °F 1.6 °F 1010.0 in ENE 3.7 mph 3.7 mph 85 % 0.0 in
02:00 5.5 °F 4.0 °F 1007.0 in NE 8.0 mph 8.0 mph 90 % 0.0 in
02:01 3.9 °F 1.6 °F 1009.0 in NNE 7.4 mph 7.4 mph 85 % 0.0 in
02:10 5.5 °F 4.0 °F 1007.0 in NE 8.0 mph 8.0 mph 90 % 0.0 in
02:20 5.4 °F 3.9 °F 1008.0 in NNE 1.6 mph 8.0 mph 90 % 0.0 in
02:30 5.4 °F 3.7 °F 1008.0 in Calm   3.2 mph 89 % 1.3 in
02:40 5.4 °F 3.9 °F 1007.0 in Calm   4.8 mph 90 % 1.3 in
02:50 5.5 °F 4.0 °F 1008.0 in NE 1.6 mph 3.2 mph 90 % 0.0 in
03:00 5.6 °F 4.1 °F 1008.0 in NNE 3.2 mph 6.4 mph 90 % 0.0 in
03:10 5.7 °F 4.2 °F 1007.0 in Calm   4.8 mph 90 % 0.8 in
03:20 5.7 °F 4.2 °F 1007.0 in Calm   1.6 mph 90 % 0.8 in
09:24 5.7 °F 4.2 °F 1007.0 in SW 1.9 mph 6.4 mph 90 % 2.0 in
09:29 5.8 °F 4.3 °F 1008.0 in SW 6.4 mph 6.4 mph 90 % 2.0 in
09:34 5.8 °F 4.3 °F 1008.0 in WSW 3.7 mph 3.7 mph 90 % 2.0 in
09:39 5.8 °F 4.3 °F 1008.0 in Calm     90 % 2.0 in
09:44 5.8 °F 4.3 °F 1008.0 in Calm     90 % 2.0 in
09:49 5.8 °F 4.3 °F 1008.0 in NNE 1.9 mph 1.9 mph 90 % 2.0 in
09:54 5.8 °F 4.3 °F 1008.0 in ENE 6.1 mph 6.1 mph 90 % 2.0 in
09:59 5.8 °F 4.3 °F 1008.0 in ENE 5.6 mph   90 % 0.8 in
10:04 5.8 °F 4.3 °F 1008.0 in NE 5.6 mph 5.6 mph 90 % 0.8 in
10:09 5.8 °F 4.3 °F 1008.0 in West 1.9 mph 1.9 mph 90 % 0.8 in
10:14 5.9 °F 4.4 °F 1008.0 in NNE 1.4 mph   90 % 0.8 in
10:20 5.8 °F 4.3 °F 1008.0 in NNE 3.7 mph 3.7 mph 90 % 0.0 in
10:25 5.8 °F 4.3 °F 1008.0 in NNW 5.6 mph 5.6 mph 90 % 0.0 in
10:30 5.8 °F 4.3 °F 1008.0 in NE 5.3 mph 5.3 mph 90 % 0.0 in
10:35 5.7 °F 4.2 °F 1008.0 in NNE 7.4 mph 7.4 mph 90 % 0.0 in
10:40 5.7 °F 4.2 °F 1008.0 in NNE 13.0 mph 13.0 mph 90 % 4.6 in
10:45 5.6 °F 4.1 °F 1008.0 in NE 6.1 mph 6.1 mph 90 % 4.6 in
10:50 5.6 °F 4.1 °F 1008.0 in North 9.3 mph 9.3 mph 90 % 4.6 in
10:55 5.7 °F 4.2 °F 1008.0 in ENE 7.4 mph 7.4 mph 90 % 4.6 in
11:00 5.7 °F 4.2 °F 1008.0 in ENE 9.3 mph 9.3 mph 90 % 4.6 in
11:05 5.7 °F 4.2 °F 1008.0 in NE 9.3 mph 9.3 mph 90 % 4.6 in
11:10 5.7 °F 4.2 °F 1008.0 in NNE 7.4 mph 7.4 mph 90 % 4.6 in
11:15 5.8 °F 4.3 °F 1007.0 in NNE 5.6 mph 5.6 mph 90 % 4.6 in
11:20 5.8 °F 4.4 °F 1007.0 in NNE 7.4 mph 7.4 mph 91 % 4.6 in
11:25 5.8 °F 4.4 °F 1007.0 in NNE 9.3 mph 9.3 mph 91 % 4.6 in
11:30 5.9 °F 4.6 °F 1007.0 in NE 6.9 mph 6.9 mph 91 % 4.6 in
11:35 5.9 °F 4.4 °F 1007.0 in NNE 11.1 mph 11.1 mph 90 % 4.6 in
11:40 5.9 °F 4.4 °F 1007.0 in NE 11.1 mph 11.1 mph 90 % 0.0 in
11:45 6.0 °F 4.5 °F 1008.0 in NNE 11.1 mph 11.1 mph 90 % 0.0 in
11:50 6.0 °F 4.5 °F 1008.0 in ENE 6.1 mph 6.1 mph 90 % 0.0 in
11:55 6.0 °F 4.5 °F 1008.0 in NNE 7.4 mph 7.4 mph 90 % 0.0 in
12:00 6.0 °F 4.7 °F 1008.0 in NNE 8.7 mph 8.7 mph 91 % 0.0 in
12:05 6.1 °F 4.7 °F 1008.0 in NNE 7.6 mph 7.6 mph 91 % 0.0 in
12:10 6.1 °F 4.7 °F 1008.0 in North 1.9 mph   91 % 0.0 in
12:15 6.1 °F 4.7 °F 1008.0 in NNE 1.9 mph 1.9 mph 91 % 0.0 in
12:20 6.2 °F 4.8 °F 1008.0 in NNE 3.9 mph 3.9 mph 91 % 0.0 in
12:25 6.3 °F 4.9 °F 1008.0 in ENE 3.7 mph 3.7 mph 91 % 0.0 in
12:30 6.3 °F 4.9 °F 1008.0 in NE 5.6 mph 5.6 mph 91 % 0.0 in
12:35 6.4 °F 5.1 °F 1008.0 in NNE 7.4 mph 7.4 mph 91 % 0.0 in
12:40 6.5 °F 5.1 °F 1008.0 in North 5.0 mph 5.0 mph 91 % 0.0 in
12:45 6.5 °F 5.1 °F 1008.0 in Calm     91 % 0.0 in
12:50 6.6 °F 5.2 °F 1008.0 in SSW 3.2 mph 3.2 mph 91 % 0.0 in
12:55 6.6 °F 5.2 °F 1008.0 in Calm     91 % 0.0 in
13:00 6.8 °F 5.4 °F 1008.0 in SSW 2.3 mph   91 % 0.0 in
13:05 6.7 °F 5.3 °F 1008.0 in WSW 14.8 mph 14.8 mph 91 % 0.0 in
13:10 6.7 °F 5.3 °F 1008.0 in WSW 5.6 mph 5.6 mph 91 % 0.0 in
13:15 6.7 °F 5.3 °F 1008.0 in West 5.6 mph 5.6 mph 91 % 0.0 in
13:20 6.8 °F 5.4 °F 1008.0 in WSW 6.4 mph 6.4 mph 91 % 0.0 in
13:25 6.7 °F 5.3 °F 1008.0 in West 4.2 mph 4.2 mph 91 % 0.0 in
13:30 6.7 °F 5.2 °F 1008.0 in WSW 7.4 mph 7.4 mph 90 % 0.0 in
13:35 6.8 °F 5.4 °F 1008.0 in WSW 5.6 mph 5.6 mph 91 % 0.0 in
13:40 6.7 °F 5.3 °F 1008.0 in SW 5.6 mph 5.6 mph 91 % 0.0 in
13:45 6.7 °F 5.3 °F 1008.0 in WSW 1.9 mph   91 % 0.0 in
13:50 6.6 °F 5.2 °F 1008.0 in SW 1.9 mph   91 % 7.1 in
13:55 6.6 °F 5.2 °F 1008.0 in Calm     91 % 7.1 in
14:00 6.7 °F 5.3 °F 1008.0 in NNE 1.9 mph   91 % 7.1 in
14:05 6.7 °F 5.3 °F 1008.0 in WNW 3.7 mph 3.7 mph 91 % 7.1 in
14:10 6.7 °F 5.3 °F 1008.0 in WNW 1.9 mph   91 % 7.1 in
14:15 6.7 °F 5.3 °F 1008.0 in North 5.0 mph   91 % 7.1 in
14:20 6.7 °F 5.3 °F 1008.0 in NE 5.0 mph 5.0 mph 91 % 7.1 in
14:25 6.7 °F 5.3 °F 1008.0 in ENE 7.6 mph 7.6 mph 91 % 7.1 in
14:30 6.7 °F 5.3 °F 1008.0 in North 9.3 mph 9.3 mph 91 % 7.1 in
14:35 6.6 °F 5.2 °F 1008.0 in NNE 6.4 mph 6.4 mph 91 % 7.1 in
14:40 6.7 °F 5.3 °F 1008.0 in NNW 5.6 mph 5.6 mph 91 % 7.1 in
14:45 6.7 °F 5.3 °F 1007.0 in NNW 3.7 mph 3.7 mph 91 % 7.1 in
14:50 6.7 °F 5.3 °F 1007.0 in NE 3.7 mph   91 % 0.0 in
14:55 6.7 °F 5.3 °F 1007.0 in ENE 1.9 mph 1.9 mph 91 % 0.0 in
15:00 6.7 °F 5.3 °F 1008.0 in NE 6.9 mph 6.9 mph 91 % 0.0 in
15:05 6.6 °F 5.2 °F 1008.0 in NW 5.6 mph 5.6 mph 91 % 0.0 in
15:10 6.5 °F 5.1 °F 1008.0 in NNE 9.3 mph 9.3 mph 91 % 0.0 in
15:15 6.5 °F 5.1 °F 1007.0 in ENE 5.6 mph 5.6 mph 91 % 0.0 in
15:20 6.6 °F 5.2 °F 1007.0 in NNE 5.6 mph 5.6 mph 91 % 0.0 in
15:25 6.6 °F 5.2 °F 1007.0 in North 7.4 mph 7.4 mph 91 % 0.0 in
15:30 6.5 °F 5.1 °F 1007.0 in NNE 11.1 mph 11.1 mph 91 % 0.0 in
15:35 6.5 °F 5.1 °F 1007.0 in NNE 7.4 mph 7.4 mph 91 % 0.0 in
15:40 6.5 °F 5.1 °F 1007.0 in ENE 10.3 mph 10.3 mph 91 % 0.0 in
15:45 6.5 °F 5.0 °F 1008.0 in NNE 9.3 mph 9.3 mph 90 % 0.0 in
15:50 6.5 °F 5.0 °F 1008.0 in ENE 9.3 mph 9.3 mph 90 % 0.0 in
15:55 6.5 °F 5.0 °F 1008.0 in NNW 11.1 mph 11.1 mph 90 % 0.0 in
16:00 6.5 °F 5.0 °F 1008.0 in ENE 9.7 mph 9.7 mph 90 % 0.0 in
16:05 6.5 °F 5.0 °F 1008.0 in NNE 9.7 mph 9.7 mph 90 % 0.0 in
16:10 6.4 °F 4.9 °F 1008.0 in NNE 9.3 mph 9.3 mph 90 % 0.0 in
16:15 6.4 °F 4.9 °F 1007.0 in SE 9.3 mph 9.3 mph 90 % 0.0 in
16:20 6.3 °F 4.8 °F 1007.0 in ENE 9.3 mph 9.3 mph 90 % 0.0 in
16:25 6.4 °F 4.9 °F 1007.0 in NNE 7.4 mph 7.4 mph 90 % 0.0 in
16:30 6.3 °F 4.8 °F 1008.0 in NNW 14.0 mph 14.0 mph 90 % 0.0 in
16:35 6.3 °F 4.8 °F 1008.0 in NNE 7.4 mph 7.4 mph 90 % 0.0 in
16:40 6.2 °F 4.7 °F 1008.0 in NE 9.3 mph 9.3 mph 90 % 0.0 in
16:45 6.2 °F 4.7 °F 1008.0 in NNE 9.3 mph 9.3 mph 90 % 0.0 in
16:50 6.2 °F 4.7 °F 1008.0 in NNE 9.3 mph 9.3 mph 90 % 0.0 in
16:55 6.2 °F 4.5 °F 1008.0 in NNE 9.3 mph 9.3 mph 89 % 0.0 in
17:00 6.1 °F 4.4 °F 1008.0 in ENE 9.3 mph 9.5 mph 89 % 0.0 in
17:05 6.2 °F 4.5 °F 1008.0 in NNE 16.7 mph 16.7 mph 89 % 0.0 in
17:10 6.2 °F 4.3 °F 1008.0 in ENE 11.1 mph 11.1 mph 88 % 0.0 in
17:15 6.2 °F 4.3 °F 1008.0 in NNE 7.4 mph 7.4 mph 88 % 0.0 in
17:20 6.2 °F 4.3 °F 1008.0 in NNW 9.3 mph 9.3 mph 88 % 0.0 in
17:25 6.2 °F 4.3 °F 1008.0 in ENE 5.6 mph 5.6 mph 88 % 0.0 in
17:30 6.2 °F 4.3 °F 1008.0 in NNE 6.9 mph 6.9 mph 88 % 0.0 in
17:35 6.1 °F 4.3 °F 1008.0 in NNE 7.4 mph 7.4 mph 88 % 0.0 in
17:40 6.1 °F 4.3 °F 1008.0 in NNE 7.4 mph 7.4 mph 88 % 0.0 in
17:45 6.0 °F 4.2 °F 1008.0 in NW 7.4 mph 7.4 mph 88 % 0.0 in
17:50 6.0 °F 4.3 °F 1008.0 in NNE 7.4 mph 7.4 mph 89 % 0.0 in
17:55 6.0 °F 4.3 °F 1008.0 in ENE 3.7 mph 4.2 mph 89 % 0.0 in
18:00 6.0 °F 4.3 °F 1008.0 in NNE 9.3 mph 9.3 mph 89 % 0.0 in
18:05 6.1 °F 4.4 °F 1008.0 in NE 6.9 mph 6.9 mph 89 % 0.0 in
18:10 6.1 °F 4.4 °F 1008.0 in NNE 7.4 mph 7.4 mph 89 % 0.0 in
18:15 6.2 °F 4.5 °F 1008.0 in NNW 9.7 mph 9.7 mph 89 % 0.0 in
18:20 6.2 °F 4.5 °F 1008.0 in NNE 11.1 mph 11.1 mph 89 % 0.0 in
18:25 6.3 °F 4.6 °F 1008.0 in East 9.3 mph 9.3 mph 89 % 0.0 in
18:30 6.3 °F 4.6 °F 1008.0 in ENE 7.4 mph 7.4 mph 89 % 0.0 in
18:35 6.2 °F 4.5 °F 1008.0 in NNE 4.7 mph 4.7 mph 89 % 0.0 in
18:40 6.2 °F 4.5 °F 1008.0 in NNW 7.4 mph 7.4 mph 89 % 0.0 in
18:45 6.2 °F 4.5 °F 1008.0 in NNE 5.6 mph 5.6 mph 89 % 0.0 in
18:50 6.2 °F 4.5 °F 1008.0 in North 3.7 mph 3.7 mph 89 % 0.0 in
18:55 6.2 °F 4.5 °F 1008.0 in NNE 3.7 mph 3.7 mph 89 % 0.0 in
19:00 6.2 °F 4.5 °F 1008.0 in NNE 3.7 mph 3.7 mph 89 % 0.0 in
19:05 6.2 °F 4.5 °F 1008.0 in NNE 7.6 mph 7.6 mph 89 % 0.0 in
19:10 6.3 °F 4.6 °F 1008.0 in ENE 8.7 mph 8.7 mph 89 % 0.0 in
19:15 6.4 °F 4.7 °F 1008.0 in NNE 9.3 mph 9.3 mph 89 % 0.0 in
19:20 6.5 °F 4.8 °F 1008.0 in NNE 7.4 mph 7.4 mph 89 % 0.0 in
19:25 6.5 °F 4.8 °F 1008.0 in ENE 1.9 mph 1.9 mph 89 % 0.0 in
19:30 6.4 °F 4.7 °F 1008.0 in NNE 1.9 mph   89 % 0.0 in
19:35 6.4 °F 4.7 °F 1008.0 in NNE 2.3 mph 2.3 mph 89 % 0.0 in
19:40 6.4 °F 4.7 °F 1008.0 in NNE 3.7 mph 3.7 mph 89 % 0.0 in
19:45 6.4 °F 4.7 °F 1009.0 in NNE 4.7 mph 4.7 mph 89 % 0.0 in
19:50 6.4 °F 4.7 °F 1009.0 in ENE 4.2 mph 4.2 mph 89 % 0.0 in
19:55 6.5 °F 4.8 °F 1009.0 in NE 5.6 mph 5.6 mph 89 % 0.0 in
20:00 6.5 °F 4.8 °F 1009.0 in NNE 7.4 mph 7.4 mph 89 % 0.0 in
20:05 6.6 °F 4.9 °F 1009.0 in ENE 3.7 mph 3.7 mph 89 % 0.0 in
20:10 6.6 °F 4.9 °F 1009.0 in ENE 3.7 mph 3.7 mph 89 % 0.0 in
20:15 6.6 °F 4.8 °F 1009.0 in NNE 5.6 mph 5.6 mph 88 % 0.0 in
20:20 6.6 °F 4.8 °F 1009.0 in NE 7.9 mph 7.9 mph 88 % 0.0 in
20:25 6.6 °F 4.8 °F 1009.0 in NNE 11.1 mph 11.1 mph 88 % 0.0 in
20:30 6.5 °F 4.7 °F 1008.0 in NNE 7.4 mph 7.4 mph 88 % 0.0 in
20:35 6.5 °F 4.7 °F 1008.0 in NNE 7.9 mph 7.9 mph 88 % 0.0 in
20:40 6.5 °F 4.7 °F 1008.0 in NNE 7.4 mph 7.4 mph 88 % 0.0 in
20:45 6.5 °F 4.7 °F 1008.0 in NNE 9.3 mph 9.3 mph 88 % 0.0 in
20:50 6.5 °F 4.7 °F 1008.0 in NNE 7.6 mph 7.6 mph 88 % 0.0 in
20:55 6.5 °F 4.7 °F 1008.0 in NNE 9.3 mph 9.3 mph 88 % 0.0 in
21:00 6.5 °F 4.7 °F 1009.0 in NNE 9.3 mph 9.3 mph 88 % 0.0 in
21:05 6.5 °F 4.7 °F 1009.0 in NNE 7.4 mph 7.4 mph 88 % 0.0 in
21:10 6.5 °F 4.7 °F 1009.0 in NNE 3.7 mph 3.7 mph 88 % 0.0 in
21:15 6.5 °F 4.5 °F 1008.0 in ENE 4.2 mph 4.2 mph 87 % 0.0 in
21:20 6.5 °F 4.5 °F 1008.0 in NNE 3.7 mph 3.7 mph 87 % 0.0 in
21:25 6.5 °F 4.5 °F 1008.0 in NNE 5.8 mph 5.8 mph 87 % 0.0 in
21:30 6.5 °F 4.5 °F 1009.0 in NW 3.7 mph 3.7 mph 87 % 0.0 in
21:35 6.5 °F 4.5 °F 1009.0 in South 3.7 mph 3.7 mph 87 % 0.0 in
21:40 6.4 °F 4.4 °F 1009.0 in NNE 5.0 mph 5.0 mph 87 % 0.0 in
21:45 6.4 °F 4.4 °F 1009.0 in Calm     87 % 0.0 in
21:50 6.4 °F 4.4 °F 1009.0 in NNE 1.9 mph   87 % 0.0 in
21:55 6.4 °F 4.4 °F 1009.0 in Calm     87 % 0.0 in
22:00 6.4 °F 4.4 °F 1009.0 in NE 2.3 mph   87 % 0.0 in
22:05 6.4 °F 4.4 °F 1009.0 in NNW 4.2 mph   87 % 0.0 in
22:10 6.4 °F 4.4 °F 1009.0 in ENE 1.9 mph 1.9 mph 87 % 0.0 in
22:15 6.4 °F 4.4 °F 1009.0 in Calm     87 % 0.0 in
22:20 6.4 °F 4.4 °F 1009.0 in NNE 3.7 mph 3.7 mph 87 % 0.0 in
22:25 6.4 °F 4.4 °F 1009.0 in NNW 1.9 mph   87 % 0.0 in
22:30 6.4 °F 4.4 °F 1008.0 in NE 3.7 mph 3.7 mph 87 % 0.0 in
22:35 6.4 °F 4.4 °F 1008.0 in NE 1.9 mph   87 % 0.0 in
22:40 6.4 °F 4.6 °F 1008.0 in Calm     88 % 0.0 in
22:45 6.4 °F 4.6 °F 1008.0 in NNE 1.9 mph 2.3 mph 88 % 0.0 in
22:50 6.4 °F 4.6 °F 1008.0 in NE 1.9 mph   88 % 0.0 in
22:55 6.4 °F 4.6 °F 1008.0 in Calm     88 % 0.0 in
23:00 6.4 °F 4.6 °F 1008.0 in Calm     88 % 0.0 in
23:05 6.4 °F 4.6 °F 1008.0 in Calm     88 % 0.0 in
23:10 6.4 °F 4.6 °F 1008.0 in Calm     88 % 0.0 in
23:15 6.4 °F 4.6 °F 1008.0 in Calm     88 % 6.1 in
23:20 6.4 °F 4.7 °F 1008.0 in Calm     89 % 6.1 in
23:25 6.4 °F 4.7 °F 1008.0 in Calm     89 % 6.1 in
23:30 6.4 °F 4.7 °F 1008.0 in Calm     89 % 6.1 in
23:35 6.4 °F 4.7 °F 1008.0 in Calm     89 % 6.1 in
23:40 6.4 °F 4.7 °F 1008.0 in West 2.3 mph   89 % 6.1 in
23:45 6.4 °F 4.7 °F 1008.0 in WSW 1.9 mph   89 % 6.1 in
23:50 6.4 °F 4.7 °F 1008.0 in SW 5.6 mph 5.6 mph 89 % 6.1 in
23:55 6.4 °F 4.7 °F 1008.0 in WSW 1.9 mph   89 % 6.1 in
Meteo Sesrovires
Elogis d' Weather Underground - 3.75 mb

Guio original per  Jim McMurry - jmcmurry@mwt.net Adaptat per a la plantilla per  Wim van der Kuil - Leuven-Template.eu

Trobareu la nostra informacio del temps tambe a:

Weather Underground

AWEKAS